Time;durP1;ratioP1;P1;durP2;ratioP2;P2;SDS_P1;SDS_P2;PMS_P1;PMS_P2;Temp;Humidity;BMP_temperature;BMP_pressure;BME280_temperature;BME280_humidity;BME280_pressure;Samples;Min_cycle;Max_cycle;Signal;HPM_P1;HPM_P2
2023/05/16 00:00:08;;;;;;;17.48;3.10;;;10.10;99.90;;;;;;5084335;27;21504;-63
2023/05/16 00:02:38;;;;;;;16.52;2.47;;;10.00;99.90;;;;;;5093099;28;20070;-59
2023/05/16 00:05:05;;;;;;;19.55;2.55;;;10.00;99.90;;;;;;5088945;28;20144;-68
2023/05/16 00:07:33;;;;;;;26.38;2.83;;;10.00;99.90;;;;;;5088940;28;20055;-66
2023/05/16 00:09:58;;;;;;;17.08;2.92;;;10.00;99.90;;;;;;5082179;28;20039;-63
2023/05/16 00:12:25;;;;;;;12.40;2.55;;;9.90;97.90;;;;;;5090844;28;20306;-62
2023/05/16 00:14:51;;;;;;;20.38;3.15;;;9.90;96.70;;;;;;5089806;28;20461;-60
2023/05/16 00:17:19;;;;;;;17.27;2.78;;;9.90;99.90;;;;;;5088641;28;20549;-65
2023/05/16 00:19:57;;;;;;;16.75;3.35;;;10.00;99.90;;;;;;5058577;28;20048;-61
2023/05/16 00:22:23;;;;;;;15.32;2.83;;;9.90;99.90;;;;;;5090265;28;20062;-64
2023/05/16 00:24:49;;;;;;;16.63;2.35;;;9.90;99.90;;;;;;5072000;28;20523;-59
2023/05/16 00:27:15;;;;;;;16.05;2.28;;;9.90;99.90;;;;;;5088922;28;20056;-62
2023/05/16 00:29:40;;;;;;;12.70;3.15;;;9.90;99.90;;;;;;5088307;28;20183;-66
2023/05/16 00:32:07;;;;;;;16.48;2.53;;;9.90;99.90;;;;;;5092763;28;20085;-65
2023/05/16 00:34:34;;;;;;;17.58;3.03;;;9.90;99.90;;;;;;5088171;28;20043;-67
2023/05/16 00:37:00;;;;;;;14.23;2.78;;;9.90;99.90;;;;;;5058609;28;20134;-60
2023/05/16 00:39:25;;;;;;;14.73;2.45;;;9.80;97.60;;;;;;5087810;28;20502;-61
2023/05/16 00:41:52;;;;;;;9.10;2.03;;;9.70;98.50;;;;;;5074050;27;20066;-65
2023/05/16 00:44:18;;;;;;;11.50;2.53;;;9.70;96.20;;;;;;5099323;28;20126;-63
2023/05/16 00:46:43;;;;;;;12.32;1.63;;;9.70;92.50;;;;;;5071238;28;20093;-64
2023/05/16 00:49:11;;;;;;;19.65;3.15;;;9.60;91.30;;;;;;5088092;28;20117;-70
2023/05/16 00:51:38;;;;;;;19.20;2.35;;;9.60;94.60;;;;;;5071108;28;20072;-64
2023/05/16 00:54:05;;;;;;;8.32;1.90;;;9.60;95.00;;;;;;5088989;28;20306;-63
2023/05/16 00:56:31;;;;;;;13.43;2.35;;;9.60;95.70;;;;;;5053985;28;20055;-59
2023/05/16 00:58:57;;;;;;;26.98;3.42;;;9.60;94.60;;;;;;5089104;28;20165;-65
2023/05/16 01:01:26;;;;;;;15.90;2.22;;;9.60;93.50;;;;;;5088092;28;20514;-60
2023/05/16 01:03:52;;;;;;;10.02;1.88;;;9.60;94.70;;;;;;5088842;28;20047;-66
2023/05/16 01:06:18;;;;;;;11.93;1.77;;;9.50;94.80;;;;;;5106749;28;20050;-59
2023/05/16 01:08:44;;;;;;;16.80;2.08;;;9.60;94.30;;;;;;5087489;28;20067;-67
2023/05/16 01:11:09;;;;;;;13.07;2.17;;;9.50;95.80;;;;;;5055208;28;20066;-60
2023/05/16 01:14:09;;;;;;;12.95;2.53;;;9.50;96.90;;;;;;5087046;28;20047;-61
2023/05/16 01:16:47;;;;;;;13.55;1.90;;;9.50;95.30;;;;;;5075826;28;20124;-64
2023/05/16 01:19:29;;;;;;;13.77;2.55;;;9.40;95.80;;;;;;5087888;28;20040;-72
2023/05/16 01:22:14;;;;;;;15.93;2.33;;;9.40;95.20;;;;;;5087400;28;20554;-61
2023/05/16 01:25:01;;;;;;;17.05;2.40;;;9.40;96.70;;;;;;5088015;28;20055;-60
2023/05/16 01:27:28;;;;;;;9.55;1.95;;;9.40;99.10;;;;;;5070864;28;20047;-64
2023/05/16 01:29:57;;;;;;;16.02;3.85;;;9.40;98.50;;;;;;5070590;28;20078;-59
2023/05/16 01:32:23;;;;;;;11.00;1.90;;;9.40;96.50;;;;;;5087427;28;20043;-60
2023/05/16 01:34:53;;;;;;;13.32;2.75;;;9.30;95.60;;;;;;5070672;28;20046;-61
2023/05/16 01:37:29;;;;;;;12.23;2.22;;;9.30;96.20;;;;;;5088262;28;20040;-62
2023/05/16 01:40:18;;;;;;;10.15;1.92;;;9.30;96.40;;;;;;5087154;28;20478;-61
2023/05/16 01:42:49;;;;;;;13.80;2.15;;;9.30;98.90;;;;;;5087566;28;20398;-65
2023/05/16 01:45:23;;;;;;;15.13;2.42;;;9.30;98.70;;;;;;5087471;28;20140;-60
2023/05/16 01:48:00;;;;;;;10.73;2.33;;;9.30;99.90;;;;;;5070300;28;20126;-60
2023/05/16 01:50:31;;;;;;;14.57;2.65;;;9.30;98.10;;;;;;5088093;28;20040;-60
2023/05/16 01:53:10;;;;;;;9.45;1.92;;;9.20;95.10;;;;;;5087562;28;20052;-60
2023/05/16 01:55:46;;;;;;;20.35;2.10;;;9.20;93.30;;;;;;5086889;28;20043;-58
2023/05/16 01:58:13;;;;;;;14.02;2.33;;;9.20;95.40;;;;;;5070534;28;20055;-66
2023/05/16 02:00:40;;;;;;;14.25;1.90;;;9.20;99.50;;;;;;5085631;28;20055;-67
2023/05/16 02:03:06;;;;;;;13.80;2.28;;;9.20;98.90;;;;;;5087919;28;20047;-59
2023/05/16 02:05:32;;;;;;;11.85;2.10;;;9.20;98.00;;;;;;5086101;28;20500;-59
2023/05/16 02:08:01;;;;;;;10.85;1.92;;;9.20;99.50;;;;;;5103657;28;20048;-59
2023/05/16 02:10:27;;;;;;;13.85;2.47;;;9.20;99.70;;;;;;5072797;28;20052;-63
2023/05/16 02:12:53;;;;;;;11.90;1.77;;;9.10;97.90;;;;;;5086539;28;20104;-65
2023/05/16 02:15:18;;;;;;;18.13;2.47;;;9.10;96.20;;;;;;5071020;28;20044;-66
2023/05/16 02:17:44;;;;;;;10.40;2.13;;;9.10;96.40;;;;;;5087403;28;20093;-59
2023/05/16 02:20:12;;;;;;;10.50;2.00;;;9.10;94.30;;;;;;5087285;28;20048;-63
2023/05/16 02:22:38;;;;;;;12.82;2.55;;;9.00;96.20;;;;;;5069413;28;20058;-65
2023/05/16 02:25:05;;;;;;;14.00;2.22;;;9.00;96.00;;;;;;5087597;28;20122;-67
2023/05/16 02:27:30;;;;;;;10.07;2.28;;;9.00;96.10;;;;;;5097595;28;20055;-59
2023/05/16 02:29:56;;;;;;;16.45;2.05;;;9.00;96.80;;;;;;5087408;28;20050;-65
2023/05/16 02:32:23;;;;;;;14.90;2.28;;;9.00;97.20;;;;;;5086831;28;20048;-62
2023/05/16 02:34:49;;;;;;;17.02;2.30;;;9.00;98.90;;;;;;5086968;28;20122;-66
2023/05/16 02:37:15;;;;;;;15.35;2.88;;;9.00;99.30;;;;;;5076166;28;20576;-66
2023/05/16 02:39:41;;;;;;;10.50;2.05;;;9.10;98.60;;;;;;5090185;28;20058;-65
2023/05/16 02:42:07;;;;;;;8.18;1.88;;;9.10;98.80;;;;;;5087792;28;20122;-59
2023/05/16 02:44:32;;;;;;;16.08;2.53;;;9.10;99.90;;;;;;5086159;28;20466;-60
2023/05/16 02:46:58;;;;;;;14.07;2.53;;;9.10;99.80;;;;;;5087482;28;20099;-66
2023/05/16 02:49:24;;;;;;;11.27;2.05;;;9.20;99.90;;;;;;5086471;28;20040;-65
2023/05/16 02:51:50;;;;;;;12.80;2.22;;;9.10;99.90;;;;;;5069400;28;20040;-67
2023/05/16 02:54:16;;;;;;;14.18;2.47;;;9.10;99.50;;;;;;5087404;28;20538;-65
2023/05/16 02:56:43;;;;;;;13.13;2.58;;;9.10;99.20;;;;;;5069050;28;20043;-66
2023/05/16 02:59:10;;;;;;;11.05;2.03;;;9.10;99.90;;;;;;5087850;28;20040;-60
2023/05/16 03:01:35;;;;;;;8.60;1.63;;;9.10;99.90;;;;;;5068566;28;20044;-66
2023/05/16 03:04:01;;;;;;;18.75;2.97;;;9.00;99.90;;;;;;5087714;28;20074;-63
2023/05/16 03:06:27;;;;;;;13.10;2.80;;;8.90;98.90;;;;;;5069405;28;20504;-58
2023/05/16 03:08:58;;;;;;;18.05;2.30;;;8.90;99.90;;;;;;5073607;28;20078;-66
2023/05/16 03:11:25;;;;;;;12.38;2.50;;;8.90;98.90;;;;;;5052764;28;20083;-62
2023/05/16 03:13:51;;;;;;;14.13;2.03;;;8.90;99.30;;;;;;5089355;28;20100;-61
2023/05/16 03:16:17;;;;;;;13.98;2.08;;;8.90;99.20;;;;;;5090352;28;20343;-64
2023/05/16 03:18:42;;;;;;;14.77;2.53;;;8.90;98.00;;;;;;5090786;27;20055;-58
2023/05/16 03:21:08;;;;;;;9.32;1.58;;;8.90;99.10;;;;;;5111805;27;20087;-61
2023/05/16 03:23:33;;;;;;;9.75;2.17;;;8.90;98.50;;;;;;5072480;28;20104;-66
2023/05/16 03:25:59;;;;;;;18.90;1.98;;;8.90;97.00;;;;;;5090705;28;20061;-65
2023/05/16 03:28:26;;;;;;;12.07;1.77;;;9.00;96.60;;;;;;5089898;28;20169;-59
2023/05/16 03:30:51;;;;;;;9.45;1.90;;;9.00;99.00;;;;;;5092181;28;20048;-59
2023/05/16 03:33:18;;;;;;;11.38;2.00;;;9.10;99.70;;;;;;5053069;28;20059;-60
2023/05/16 03:35:44;;;;;;;13.48;2.13;;;9.10;99.30;;;;;;5063781;28;20529;-62
2023/05/16 03:38:11;;;;;;;14.45;2.05;;;9.10;97.20;;;;;;5090443;28;20140;-62
2023/05/16 03:40:36;;;;;;;15.30;2.08;;;9.20;99.60;;;;;;5108383;27;20088;-59
2023/05/16 03:43:02;;;;;;;12.48;2.65;;;9.10;95.90;;;;;;5090264;28;20545;-62
2023/05/16 03:45:31;;;;;;;13.90;1.88;;;9.20;98.60;;;;;;5072786;28;20043;-59
2023/05/16 03:47:57;;;;;;;11.73;1.83;;;9.10;98.00;;;;;;5089244;28;20035;-64
2023/05/16 03:50:23;;;;;;;18.08;2.33;;;9.10;98.60;;;;;;5095534;27;20047;-59
2023/05/16 03:52:48;;;;;;;12.98;1.80;;;9.10;98.70;;;;;;5097423;28;20094;-61
2023/05/16 03:55:15;;;;;;;10.80;2.00;;;9.00;98.50;;;;;;5091455;27;20404;-65
2023/05/16 03:57:41;;;;;;;12.50;2.25;;;9.00;97.50;;;;;;5094564;28;20039;-63
2023/05/16 04:00:09;;;;;;;14.35;2.25;;;9.00;98.00;;;;;;5093477;28;20093;-59
2023/05/16 04:02:39;;;;;;;13.45;2.00;;;8.90;99.60;;;;;;5089015;28;20046;-61
2023/05/16 04:05:08;;;;;;;14.97;2.50;;;8.90;99.30;;;;;;5089798;28;20386;-66
2023/05/16 04:07:35;;;;;;;12.23;2.28;;;8.90;98.80;;;;;;5060115;27;20143;-63
2023/05/16 04:10:01;;;;;;;14.20;2.28;;;8.90;97.90;;;;;;5099300;27;20082;-60
2023/05/16 04:12:27;;;;;;;13.18;2.53;;;9.00;99.00;;;;;;5122935;27;20051;-65
2023/05/16 04:14:52;;;;;;;17.92;3.30;;;9.00;98.10;;;;;;5088637;28;20047;-63
2023/05/16 04:17:18;;;;;;;15.30;2.10;;;9.00;97.40;;;;;;5094688;28;20046;-63
2023/05/16 04:19:44;;;;;;;14.15;2.50;;;9.10;99.70;;;;;;5088424;28;20138;-59
2023/05/16 04:22:09;;;;;;;16.90;2.33;;;9.10;98.70;;;;;;5072712;28;20051;-60
2023/05/16 04:24:35;;;;;;;10.35;2.10;;;9.10;98.40;;;;;;5087410;28;20372;-62
2023/05/16 04:27:01;;;;;;;16.02;2.53;;;9.10;99.30;;;;;;5088735;28;20051;-58
2023/05/16 04:29:26;;;;;;;19.77;2.28;;;9.10;98.80;;;;;;5055367;28;20055;-60
2023/05/16 04:31:52;;;;;;;13.95;3.08;;;9.10;98.50;;;;;;5090657;28;20075;-65
2023/05/16 04:34:18;;;;;;;14.40;2.92;;;9.10;99.90;;;;;;5088537;28;20497;-62
2023/05/16 04:36:44;;;;;;;11.23;2.33;;;9.10;99.70;;;;;;5088442;28;20039;-62
2023/05/16 04:39:09;;;;;;;16.63;2.05;;;9.10;98.40;;;;;;5072709;28;20489;-63
2023/05/16 04:41:35;;;;;;;13.10;2.60;;;9.10;99.00;;;;;;5089592;27;20130;-58
2023/05/16 04:44:04;;;;;;;13.25;2.13;;;9.10;97.90;;;;;;5067491;28;20359;-61
2023/05/16 04:46:30;;;;;;;19.83;4.15;;;9.10;96.60;;;;;;5089961;27;20092;-64
2023/05/16 04:48:56;;;;;;;12.60;2.92;;;9.20;99.30;;;;;;5079674;28;20477;-66
2023/05/16 04:51:21;;;;;;;6.22;1.80;;;9.20;97.50;;;;;;5105316;28;20561;-67
2023/05/16 04:53:47;;;;;;;15.50;3.30;;;9.30;98.80;;;;;;5088015;28;20066;-60
2023/05/16 04:56:13;;;;;;;9.73;2.83;;;9.30;97.10;;;;;;5071708;28;20039;-63
2023/05/16 04:58:38;;;;;;;8.88;2.33;;;9.30;97.60;;;;;;5072317;28;20043;-65
2023/05/16 05:01:04;;;;;;;17.67;3.25;;;9.30;97.90;;;;;;5071513;28;20043;-60
2023/05/16 05:03:30;;;;;;;11.40;2.53;;;9.30;98.10;;;;;;5070896;28;20082;-63
2023/05/16 05:05:56;;;;;;;12.35;3.05;;;9.30;96.30;;;;;;5088274;28;20035;-67
2023/05/16 05:08:21;;;;;;;12.48;2.15;;;9.20;97.10;;;;;;5071877;28;20070;-61
2023/05/16 05:10:47;;;;;;;8.15;1.65;;;9.30;96.70;;;;;;5087539;28;20130;-61
2023/05/16 05:13:13;;;;;;;15.15;2.30;;;9.30;99.00;;;;;;5088028;28;20092;-67
2023/05/16 05:15:38;;;;;;;15.70;2.63;;;9.30;99.40;;;;;;5087570;28;20048;-70
2023/05/16 05:18:04;;;;;;;16.33;2.13;;;9.40;97.70;;;;;;5107713;27;20032;-62
2023/05/16 05:20:30;;;;;;;13.43;2.20;;;9.50;98.20;;;;;;5088075;28;20109;-62
2023/05/16 05:22:55;;;;;;;14.05;2.40;;;9.60;98.40;;;;;;5088136;28;20562;-59
2023/05/16 05:25:21;;;;;;;14.77;2.50;;;9.80;98.00;;;;;;5071071;28;20058;-59
2023/05/16 05:27:47;;;;;;;13.05;4.15;;;10.00;95.80;;;;;;5088385;28;20089;-65
2023/05/16 05:30:13;;;;;;;12.07;2.35;;;10.10;98.90;;;;;;5094774;28;20127;-60
2023/05/16 05:32:38;;;;;;;19.38;3.10;;;10.00;96.30;;;;;;5087485;28;20486;-63
2023/05/16 05:35:05;;;;;;;10.10;2.45;;;9.80;96.90;;;;;;5071087;28;20413;-65
2023/05/16 05:37:31;;;;;;;18.15;2.85;;;9.70;95.70;;;;;;5087303;28;20493;-61
2023/05/16 05:39:56;;;;;;;12.95;1.67;;;9.70;98.20;;;;;;5071560;28;20050;-62
2023/05/16 05:42:22;;;;;;;11.10;2.35;;;9.70;97.30;;;;;;5087718;28;20051;-65
2023/05/16 05:44:48;;;;;;;11.13;2.90;;;9.60;97.70;;;;;;5087743;28;20549;-61
2023/05/16 05:47:14;;;;;;;17.23;3.15;;;9.60;98.10;;;;;;5087384;28;20043;-59
2023/05/16 05:49:40;;;;;;;10.90;2.30;;;9.60;98.70;;;;;;5088519;28;20047;-61
2023/05/16 05:52:06;;;;;;;11.07;2.60;;;9.50;99.90;;;;;;5087321;28;20406;-61
2023/05/16 05:54:32;;;;;;;12.70;2.05;;;9.50;99.90;;;;;;5070266;28;20134;-63
2023/05/16 05:56:58;;;;;;;9.80;1.80;;;9.50;99.90;;;;;;5087558;28;20032;-62
2023/05/16 05:59:23;;;;;;;15.05;2.33;;;9.50;99.90;;;;;;5070059;28;20050;-62
2023/05/16 06:01:51;;;;;;;10.00;2.05;;;9.60;99.90;;;;;;5082848;28;20126;-64
2023/05/16 06:04:18;;;;;;;10.40;1.63;;;9.70;99.90;;;;;;5087401;28;20086;-61
2023/05/16 06:06:44;;;;;;;11.57;1.63;;;9.90;99.00;;;;;;5087360;28;20048;-60
2023/05/16 06:09:10;;;;;;;15.98;2.58;;;10.20;99.30;;;;;;5070999;28;20471;-62
2023/05/16 06:11:35;;;;;;;10.68;3.13;;;10.30;96.10;;;;;;5069940;27;20122;-68
2023/05/16 06:14:01;;;;;;;9.82;2.13;;;10.30;93.80;;;;;;5071235;28;20213;-61
2023/05/16 06:16:27;;;;;;;11.10;3.22;;;10.10;91.30;;;;;;5082254;28;20036;-62
2023/05/16 06:18:53;;;;;;;8.07;2.25;;;9.90;90.40;;;;;;5087565;28;20106;-64
2023/05/16 06:21:18;;;;;;;10.13;2.22;;;9.70;91.50;;;;;;5087859;28;20126;-58
2023/05/16 06:23:45;;;;;;;15.30;2.38;;;9.70;93.40;;;;;;5087332;28;20503;-60
2023/05/16 06:26:10;;;;;;;8.57;1.65;;;9.70;93.10;;;;;;5070359;28;20163;-61
2023/05/16 06:28:36;;;;;;;11.90;2.65;;;9.90;95.20;;;;;;5120759;28;20127;-63
2023/05/16 06:31:01;;;;;;;13.95;2.25;;;10.10;94.00;;;;;;5069279;28;20465;-58
2023/05/16 06:33:27;;;;;;;15.75;2.10;;;10.30;95.20;;;;;;5086281;28;20405;-61
2023/05/16 06:35:53;;;;;;;10.15;1.90;;;10.40;94.30;;;;;;5087384;28;20035;-65
2023/05/16 06:38:19;;;;;;;6.03;1.52;;;10.60;83.50;;;;;;5078055;28;20082;-63
2023/05/16 06:40:45;;;;;;;11.23;2.97;;;10.50;91.80;;;;;;5095889;28;20059;-60
2023/05/16 06:43:10;;;;;;;8.10;3.05;;;10.40;87.60;;;;;;5086391;28;20186;-63
2023/05/16 06:45:37;;;;;;;9.82;2.00;;;10.20;83.90;;;;;;5053764;28;20326;-62
2023/05/16 06:48:03;;;;;;;11.20;1.92;;;10.10;87.10;;;;;;5071747;28;20077;-63
2023/05/16 06:50:29;;;;;;;14.38;1.92;;;10.00;86.90;;;;;;5073923;28;20379;-63
2023/05/16 06:52:55;;;;;;;12.55;2.67;;;10.10;92.10;;;;;;5075883;27;20101;-65
2023/05/16 06:55:22;;;;;;;12.98;2.17;;;10.20;93.10;;;;;;5091098;28;20481;-59
2023/05/16 06:57:47;;;;;;;10.68;2.03;;;10.50;94.10;;;;;;5074373;28;20050;-61
2023/05/16 07:00:14;;;;;;;10.35;1.80;;;10.70;87.10;;;;;;5090063;28;20126;-62
2023/05/16 07:02:39;;;;;;;10.43;1.95;;;10.80;86.50;;;;;;5090485;28;20044;-64
2023/05/16 07:05:06;;;;;;;9.23;1.95;;;10.90;81.90;;;;;;5090907;28;20097;-68
2023/05/16 07:07:32;;;;;;;12.07;1.98;;;10.90;67.70;;;;;;5108655;28;20047;-59
2023/05/16 07:09:58;;;;;;;5.80;1.55;;;10.90;65.60;;;;;;5057098;28;20127;-61
2023/05/16 07:12:23;;;;;;;6.07;1.52;;;11.00;78.80;;;;;;5089123;28;20048;-64
2023/05/16 07:14:49;;;;;;;12.93;2.13;;;11.00;70.70;;;;;;5091212;28;20121;-63
2023/05/16 07:17:16;;;;;;;10.55;1.38;;;10.90;72.70;;;;;;5089650;28;20058;-62
2023/05/16 07:19:41;;;;;;;11.82;2.30;;;11.00;83.60;;;;;;5090574;28;20038;-64
2023/05/16 07:22:07;;;;;;;15.43;2.28;;;11.30;80.10;;;;;;5109711;27;20145;-69
2023/05/16 07:24:33;;;;;;;8.73;1.70;;;11.30;77.60;;;;;;5071589;28;20112;-62
2023/05/16 07:26:59;;;;;;;11.90;1.98;;;11.30;68.60;;;;;;5090204;28;20040;-62
2023/05/16 07:29:25;;;;;;;10.73;2.05;;;11.30;71.10;;;;;;5072809;28;20044;-67
2023/05/16 07:31:51;;;;;;;13.52;2.22;;;11.40;50.80;;;;;;5089922;28;20501;-66
2023/05/16 07:34:16;;;;;;;15.52;1.70;;;11.50;45.70;;;;;;5094073;28;20397;-63
2023/05/16 07:36:42;;;;;;;9.48;1.70;;;11.90;48.10;;;;;;5090519;28;20047;-63
2023/05/16 07:39:08;;;;;;;8.18;2.17;;;12.10;22.60;;;;;;5071981;28;20138;-61
2023/05/16 07:41:33;;;;;;;18.08;2.20;;;12.20;24.60;;;;;;5073136;28;20043;-67
2023/05/16 07:43:59;;;;;;;7.82;1.85;;;12.30;23.00;;;;;;5070583;28;20032;-59
2023/05/16 07:46:25;;;;;;;11.93;1.60;;;12.60;26.60;;;;;;5077117;28;20249;-62
2023/05/16 07:48:51;;;;;;;13.77;2.63;;;13.00;18.80;;;;;;5073380;28;20390;-63
2023/05/16 07:51:16;;;;;;;8.65;2.22;;;13.10;15.50;;;;;;5106671;28;20709;-67
2023/05/16 07:53:42;;;;;;;12.10;2.33;;;12.90;20.40;;;;;;5090336;28;20070;-66
2023/05/16 07:56:08;;;;;;;11.00;2.00;;;12.30;20.50;;;;;;5088538;28;20498;-62
2023/05/16 07:58:34;;;;;;;10.50;1.85;;;11.80;33.40;;;;;;5056675;28;20043;-62
2023/05/16 08:00:59;;;;;;;15.10;1.95;;;12.00;25.20;;;;;;5096973;27;20401;-61
2023/05/16 08:03:25;;;;;;;12.10;1.92;;;12.30;17.00;;;;;;5090151;27;20039;-66
2023/05/16 08:05:51;;;;;;;6.82;1.33;;;12.70;20.50;;;;;;5090410;27;20051;-65
2023/05/16 08:08:17;;;;;;;9.90;1.85;;;13.10;19.70;;;;;;5112613;27;20055;-66
2023/05/16 08:10:43;;;;;;;7.50;1.80;;;13.30;19.20;;;;;;5072707;28;20050;-58
2023/05/16 08:13:10;;;;;;;8.82;1.23;;;12.90;9.30;;;;;;5088755;28;20409;-69
2023/05/16 08:15:35;;;;;;;13.48;2.38;;;12.70;14.60;;;;;;5069572;27;20597;-60
2023/05/16 08:18:01;;;;;;;9.65;1.98;;;12.40;21.50;;;;;;5089808;28;20067;-60
2023/05/16 08:20:27;;;;;;;5.43;1.77;;;12.00;19.80;;;;;;5089410;28;20066;-65
2023/05/16 08:22:53;;;;;;;10.07;1.80;;;11.90;23.40;;;;;;5089140;28;20438;-65
2023/05/16 08:25:20;;;;;;;15.55;2.00;;;12.10;30.70;;;;;;5089882;28;20096;-61
2023/05/16 08:27:47;;;;;;;7.78;1.73;;;12.60;25.30;;;;;;5107887;28;20842;-66
2023/05/16 08:30:13;;;;;;;8.80;1.40;;;12.60;15.60;;;;;;5088155;28;20051;-65
2023/05/16 08:32:39;;;;;;;12.73;2.10;;;12.40;14.00;;;;;;5089250;28;20063;-69
2023/05/16 08:35:06;;;;;;;7.30;1.88;;;12.20;18.50;;;;;;5088515;28;20075;-58
2023/05/16 08:37:32;;;;;;;17.88;1.90;;;12.30;24.30;;;;;;5089328;28;20588;-63
2023/05/16 08:39:58;;;;;;;12.35;1.98;;;12.50;17.00;;;;;;5072167;28;20044;-62
2023/05/16 08:42:24;;;;;;;7.97;1.60;;;12.20;20.10;;;;;;5082714;28;20057;-62
2023/05/16 08:44:50;;;;;;;17.77;2.50;;;11.80;33.60;;;;;;5072021;28;20120;-61
2023/05/16 08:47:23;;;;;;;16.90;2.05;;;11.40;42.80;;;;;;5088295;28;20075;-62
2023/05/16 08:49:51;;;;;;;13.30;2.65;;;11.40;45.00;;;;;;5089821;28;20050;-59
2023/05/16 08:52:22;;;;;;;7.32;1.50;;;12.00;36.50;;;;;;5114594;27;20086;-64
2023/05/16 08:54:50;;;;;;;10.63;1.75;;;12.30;27.30;;;;;;5083384;28;20063;-63
2023/05/16 08:57:16;;;;;;;8.55;1.88;;;12.20;23.80;;;;;;5090660;28;20039;-63
2023/05/16 08:59:42;;;;;;;14.85;2.05;;;11.90;32.00;;;;;;5071679;28;20039;-60
2023/05/16 09:02:08;;;;;;;15.65;3.55;;;11.50;43.60;;;;;;5070983;28;20047;-65
2023/05/16 09:04:36;;;;;;;17.08;2.45;;;11.30;47.40;;;;;;5087461;28;20451;-62
2023/05/16 09:07:03;;;;;;;8.48;1.70;;;11.30;60.80;;;;;;5086219;28;20052;-64
2023/05/16 09:09:29;;;;;;;13.13;2.30;;;11.60;51.40;;;;;;5073325;27;20494;-60
2023/05/16 09:11:55;;;;;;;9.43;1.58;;;12.00;63.10;;;;;;5079148;28;20536;-62
2023/05/16 09:14:21;;;;;;;6.00;1.30;;;11.90;45.60;;;;;;5068409;28;20126;-63
2023/05/16 09:17:06;;;;;;;5.10;1.10;;;11.50;34.80;;;;;;5087204;28;20158;-61
2023/05/16 09:19:40;;;;;;;5.68;1.73;;;11.40;34.80;;;;;;5087367;28;20039;-69
2023/05/16 09:22:09;;;;;;;12.35;1.35;;;11.80;38.00;;;;;;5085806;28;20513;-62
2023/05/16 09:24:42;;;;;;;6.60;1.25;;;11.80;28.50;;;;;;5087764;28;20096;-66
2023/05/16 09:27:14;;;;;;;11.38;1.80;;;11.60;36.30;;;;;;5105859;28;20119;-62
2023/05/16 09:29:41;;;;;;;9.82;2.10;;;11.90;42.10;;;;;;5087565;28;20047;-59
2023/05/16 09:32:15;;;;;;;10.77;1.92;;;12.00;37.70;;;;;;5088734;28;20073;-63
2023/05/16 09:34:47;;;;;;;8.65;1.95;;;12.00;29.90;;;;;;5069360;28;20074;-64
2023/05/16 09:37:14;;;;;;;11.32;2.75;;;12.10;39.90;;;;;;5087332;28;20047;-63
2023/05/16 09:39:48;;;;;;;8.70;1.90;;;12.00;23.40;;;;;;5068993;28;20497;-73
2023/05/16 09:42:16;;;;;;;6.15;1.42;;;11.90;27.80;;;;;;5088090;28;20051;-64
2023/05/16 09:44:47;;;;;;;9.75;1.63;;;11.80;16.80;;;;;;5085716;28;20043;-66
2023/05/16 09:47:18;;;;;;;10.60;1.92;;;12.10;23.40;;;;;;5086697;28;20043;-64
2023/05/16 09:49:45;;;;;;;11.93;1.88;;;12.10;23.60;;;;;;5086723;28;20035;-72
2023/05/16 09:52:11;;;;;;;17.67;2.58;;;11.70;23.80;;;;;;5087446;28;20135;-74
2023/05/16 09:54:37;;;;;;;12.20;1.83;;;11.30;19.10;;;;;;5070284;28;20043;-67
2023/05/16 09:57:03;;;;;;;7.20;1.20;;;11.20;28.10;;;;;;5114785;27;20465;-66
2023/05/16 09:59:30;;;;;;;11.13;1.95;;;11.70;32.40;;;;;;5085865;28;20058;-74
2023/05/16 10:01:59;;;;;;;9.05;1.63;;;12.20;29.00;;;;;;5087226;28;20087;-69
2023/05/16 10:04:25;;;;;;;5.95;1.42;;;12.50;19.40;;;;;;5083255;28;20545;-67
2023/05/16 10:06:57;;;;;;;22.30;2.63;;;12.80;21.10;;;;;;5067619;28;20082;-70
2023/05/16 10:09:23;;;;;;;3.45;0.95;;;13.10;18.50;;;;;;5083805;28;20131;-64
2023/05/16 10:11:52;;;;;;;7.10;1.25;;;13.20;15.50;;;;;;5105068;28;20122;-70
2023/05/16 10:14:19;;;;;;;10.23;1.55;;;13.20;13.40;;;;;;5086872;28;20040;-65
2023/05/16 10:16:47;;;;;;;7.22;1.50;;;13.10;7.50;;;;;;5077618;28;20048;-68
2023/05/16 10:19:15;;;;;;;8.88;2.17;;;13.10;2.70;;;;;;5088575;28;20090;-73
2023/05/16 10:21:46;;;;;;;7.25;1.52;;;13.10;4.70;;;;;;5068374;28;20044;-70
2023/05/16 10:24:17;;;;;;;8.80;1.77;;;13.30;4.90;;;;;;5090426;28;20509;-74
2023/05/16 10:26:42;;;;;;;9.93;1.80;;;13.20;9.20;;;;;;5066689;28;20040;-64
2023/05/16 10:29:09;;;;;;;12.00;1.90;;;13.30;8.30;;;;;;5060396;28;20078;-69
2023/05/16 10:31:36;;;;;;;8.00;1.75;;;13.40;6.80;;;;;;5059710;28;20055;-65
2023/05/16 10:34:02;;;;;;;10.82;1.83;;;13.10;8.50;;;;;;5089672;28;20535;-73
2023/05/16 10:36:30;;;;;;;9.07;1.73;;;12.70;23.40;;;;;;5074530;28;20043;-62
2023/05/16 10:38:56;;;;;;;5.93;1.40;;;12.10;30.60;;;;;;5071233;28;20071;-68
2023/05/16 10:41:23;;;;;;;12.48;1.40;;;11.40;39.00;;;;;;5053575;28;20048;-65
2023/05/16 10:43:57;;;;;;;6.97;1.45;;;10.80;83.50;;;;;;5106809;28;20036;-69
2023/05/16 10:46:25;;;;;;;4.57;1.13;;;10.20;94.20;;;;;;5089955;28;20056;-72
2023/05/16 10:48:51;;;;;;;5.97;0.93;;;9.80;99.90;;;;;;5090471;28;20050;-69
2023/05/16 10:51:36;;;;;;;3.80;0.90;;;9.70;99.90;;;;;;5037677;28;20052;-67
2023/05/16 10:54:08;;;;;;;2.47;0.70;;;9.60;99.90;;;;;;5079037;28;20047;-68
2023/05/16 10:56:35;;;;;;;5.65;1.55;;;9.80;99.90;;;;;;5089603;28;20052;-64
2023/05/16 10:59:01;;;;;;;5.43;1.30;;;10.20;99.90;;;;;;5102617;28;20044;-66
2023/05/16 11:01:34;;;;;;;7.57;1.98;;;10.70;99.90;;;;;;5122579;27;20507;-66
2023/05/16 11:04:05;;;;;;;4.35;1.77;;;11.10;99.90;;;;;;5088461;27;20051;-71
2023/05/16 11:06:52;;;;;;;4.80;1.30;;;11.60;95.10;;;;;;5072401;28;20048;-62
2023/05/16 11:09:21;;;;;;;5.05;1.45;;;11.70;93.40;;;;;;5068747;28;20059;-64
2023/05/16 11:11:52;;;;;;;10.53;1.60;;;11.80;96.20;;;;;;5089057;27;20043;-63
2023/05/16 11:14:33;;;;;;;10.07;1.90;;;11.70;96.60;;;;;;5092529;27;20043;-63
2023/05/16 11:17:12;;;;;;;9.63;2.05;;;11.50;95.90;;;;;;5091796;28;20067;-66
2023/05/16 11:19:46;;;;;;;5.60;1.50;;;11.70;99.90;;;;;;5088810;28;20050;-68
2023/05/16 11:22:25;;;;;;;11.18;1.83;;;11.90;99.50;;;;;;5069820;28;20298;-65
2023/05/16 11:24:54;;;;;;;10.32;1.95;;;11.80;94.10;;;;;;5090478;27;20058;-71
2023/05/16 11:27:44;;;;;;;7.22;1.58;;;11.80;93.20;;;;;;5093726;27;20199;-68
2023/05/16 11:30:12;;;;;;;12.43;1.75;;;11.80;92.30;;;;;;5074534;28;20063;-64
2023/05/16 11:32:39;;;;;;;12.30;2.65;;;11.80;92.90;;;;;;5091132;27;20562;-64
2023/05/16 11:35:07;;;;;;;10.40;1.63;;;11.70;79.30;;;;;;5087751;28;20055;-71
2023/05/16 11:37:35;;;;;;;8.57;2.15;;;11.70;74.60;;;;;;5092220;28;20043;-70
2023/05/16 11:40:11;;;;;;;9.52;1.98;;;12.00;81.50;;;;;;5072691;28;20059;-68
2023/05/16 11:42:48;;;;;;;9.80;1.60;;;12.20;82.00;;;;;;5058756;27;20071;-73
2023/05/16 11:45:14;;;;;;;9.80;1.70;;;12.40;73.80;;;;;;5070651;28;20044;-72
2023/05/16 11:47:41;;;;;;;12.70;2.42;;;12.50;76.70;;;;;;5095853;27;20047;-70
2023/05/16 11:50:13;;;;;;;12.48;2.17;;;12.50;79.10;;;;;;5072084;28;20044;-65
2023/05/16 11:52:39;;;;;;;14.18;2.80;;;12.50;73.70;;;;;;5087210;28;20037;-76
2023/05/16 11:55:06;;;;;;;9.95;1.98;;;12.50;60.10;;;;;;5087315;28;20074;-64
2023/05/16 11:57:33;;;;;;;8.18;1.70;;;12.40;63.80;;;;;;5053260;28;20047;-67
2023/05/16 12:00:15;;;;;;;7.70;2.17;;;12.50;59.10;;;;;;5080587;27;20054;-71
2023/05/16 12:02:42;;;;;;;17.55;2.90;;;12.70;26.40;;;;;;5086326;27;20056;-66
2023/05/16 12:05:09;;;;;;;9.18;2.10;;;13.00;41.70;;;;;;5093477;27;20469;-70
2023/05/16 12:07:37;;;;;;;13.73;2.15;;;13.00;36.30;;;;;;5120174;27;20087;-76
2023/05/16 12:10:07;;;;;;;8.02;2.05;;;12.80;20.50;;;;;;5071408;28;20055;-65
2023/05/16 12:12:34;;;;;;;6.65;1.83;;;12.70;24.40;;;;;;5089499;28;20043;-64
2023/05/16 12:15:05;;;;;;;7.45;1.77;;;12.70;46.30;;;;;;5116548;27;20476;-65
2023/05/16 12:17:32;;;;;;;9.20;1.70;;;12.90;26.10;;;;;;5112752;27;20465;-69
2023/05/16 12:19:59;;;;;;;10.18;1.92;;;12.80;22.20;;;;;;5088972;28;20089;-72
2023/05/16 12:22:25;;;;;;;12.10;2.03;;;12.80;30.50;;;;;;5089912;28;20370;-71
2023/05/16 12:24:52;;;;;;;7.80;2.17;;;12.80;22.60;;;;;;5071598;28;20056;-68
2023/05/16 12:27:22;;;;;;;6.93;1.55;;;12.80;33.00;;;;;;5071992;28;20892;-64
2023/05/16 12:29:49;;;;;;;10.98;2.33;;;12.80;24.10;;;;;;5089591;28;20563;-70
2023/05/16 12:32:18;;;;;;;12.07;1.75;;;13.00;25.80;;;;;;5055852;28;20123;-68
2023/05/16 12:34:50;;;;;;;9.50;2.15;;;13.20;26.10;;;;;;5104172;28;20093;-65
2023/05/16 12:37:16;;;;;;;12.18;2.17;;;13.50;19.50;;;;;;5094893;27;20104;-63
2023/05/16 12:39:42;;;;;;;8.63;1.90;;;13.50;11.20;;;;;;5093573;28;20043;-72
2023/05/16 12:42:10;;;;;;;6.22;1.52;;;13.30;17.60;;;;;;5088284;28;20074;-64
2023/05/16 12:44:36;;;;;;;13.57;2.40;;;13.10;14.40;;;;;;5071094;28;20100;-65
2023/05/16 12:47:02;;;;;;;12.50;2.58;;;12.90;22.10;;;;;;5071632;28;20039;-66